Time;durP1;ratioP1;P1;durP2;ratioP2;P2;SDS_P1;SDS_P2;PMS_P1;PMS_P2;Temp;Humidity;BMP_temperature;BMP_pressure;BME280_temperature;BME280_humidity;BME280_pressure;Samples;Min_cycle;Max_cycle;Signal;HPM_P1;HPM_P2
2023/06/27 00:00:17;;;;;;;0.40;0.40;;;;;;;;;;5069469;28;20488;-67
2023/06/27 00:02:47;;;;;;;0.30;0.30;;;;;;;;;;5059753;28;20435;-66
2023/06/27 00:05:14;;;;;;;0.38;0.38;;;;;;;;;;5067183;28;20487;-67
2023/06/27 00:07:42;;;;;;;0.50;0.50;;;;;;;;;;5066049;28;20508;-66
2023/06/27 00:10:10;;;;;;;0.30;0.30;;;;;;;;;;5066424;28;20449;-66
2023/06/27 00:12:38;;;;;;;0.43;0.43;;;;;;;;;;5068491;28;20462;-67
2023/06/27 00:15:05;;;;;;;0.50;0.50;;;;;;;;;;5068897;28;20510;-66
2023/06/27 00:17:34;;;;;;;0.50;0.50;;;;;;;;;;5065910;28;21136;-67
2023/06/27 00:20:02;;;;;;;0.80;0.40;;;;;;;;;;5067036;28;20442;-67
2023/06/27 00:22:30;;;;;;;0.60;0.30;;;;;;;;;;5069023;28;20451;-66
2023/06/27 00:24:57;;;;;;;0.25;0.25;;;;;;;;;;5070897;28;20507;-66
2023/06/27 00:27:24;;;;;;;0.30;0.30;;;;;;;;;;5065747;28;21272;-66
2023/06/27 00:29:52;;;;;;;0.40;0.40;;;;;;;;;;5064129;28;20990;-66
2023/06/27 00:32:19;;;;;;;0.55;0.55;;;;;;;;;;5064777;28;20444;-66
2023/06/27 00:34:46;;;;;;;0.60;0.60;;;;;;;;;;5063961;28;21066;-66
2023/06/27 00:37:13;;;;;;;0.47;0.47;;;;;;;;;;5066143;28;20515;-66
2023/06/27 00:39:41;;;;;;;0.60;0.60;;;;;;;;;;5065279;28;20431;-66
2023/06/27 00:42:08;;;;;;;1.10;0.40;;;;;;;;;;5050533;28;20467;-66
2023/06/27 00:44:35;;;;;;;0.32;0.32;;;;;;;;;;5065364;28;20801;-66
2023/06/27 00:47:03;;;;;;;0.50;0.50;;;;;;;;;;5066024;28;20424;-66
2023/06/27 00:49:30;;;;;;;9.02;0.90;;;;;;;;;;5066125;28;20444;-66
2023/06/27 00:51:57;;;;;;;0.20;0.20;;;;;;;;;;5048387;28;20930;-67
2023/06/27 00:54:24;;;;;;;0.30;0.30;;;;;;;;;;5064493;28;20546;-66
2023/06/27 00:56:55;;;;;;;1.60;1.00;;;;;;;;;;5064498;28;20427;-66
2023/06/27 00:59:22;;;;;;;0.45;0.40;;;;;;;;;;5057229;28;20557;-66
2023/06/27 01:01:50;;;;;;;2.00;0.80;;;;;;;;;;5060738;28;20484;-66
2023/06/27 01:04:17;;;;;;;0.50;0.30;;;;;;;;;;5062059;28;20508;-66
2023/06/27 01:06:49;;;;;;;0.40;0.40;;;;;;;;;;5063080;28;20450;-66
2023/06/27 01:09:21;;;;;;;0.25;0.25;;;;;;;;;;5067410;28;20459;-66
2023/06/27 01:11:52;;;;;;;0.38;0.38;;;;;;;;;;5065076;28;20489;-66
2023/06/27 01:14:23;;;;;;;1.10;0.30;;;;;;;;;;5063459;28;20470;-66
2023/06/27 01:16:52;;;;;;;0.38;0.38;;;;;;;;;;5067647;28;20985;-67
2023/06/27 01:19:25;;;;;;;0.30;0.30;;;;;;;;;;5063259;28;20613;-66
2023/06/27 01:21:55;;;;;;;1.40;0.30;;;;;;;;;;5066969;28;20483;-66
2023/06/27 01:24:32;;;;;;;0.30;0.30;;;;;;;;;;5064337;28;20435;-66
2023/06/27 01:27:03;;;;;;;0.50;0.50;;;;;;;;;;5065793;28;20465;-66
2023/06/27 01:29:30;;;;;;;0.70;0.70;;;;;;;;;;5067369;28;20501;-66
2023/06/27 01:32:10;;;;;;;0.30;0.30;;;;;;;;;;5062966;28;20439;-66
2023/06/27 01:34:45;;;;;;;2.30;0.43;;;;;;;;;;5063354;28;21006;-66
2023/06/27 01:37:24;;;;;;;0.50;0.50;;;;;;;;;;5064008;28;20453;-66
2023/06/27 01:39:58;;;;;;;0.27;0.27;;;;;;;;;;5056884;28;20779;-66
2023/06/27 01:49:00;;;;;;;0.70;0.70;;;;;;;;;;5064957;28;20430;-66
2023/06/27 01:51:27;;;;;;;0.38;0.38;;;;;;;;;;5061509;28;21264;-66
2023/06/27 01:53:54;;;;;;;0.40;0.40;;;;;;;;;;5064622;28;20424;-66
2023/06/27 01:56:21;;;;;;;0.30;0.30;;;;;;;;;;5065657;28;20440;-72
2023/06/27 01:58:49;;;;;;;0.40;0.40;;;;;;;;;;5063302;28;20441;-67
2023/06/27 02:01:16;;;;;;;0.28;0.28;;;;;;;;;;5067009;28;20488;-66
2023/06/27 02:03:43;;;;;;;0.30;0.30;;;;;;;;;;5064059;28;20431;-66
2023/06/27 02:06:11;;;;;;;0.50;0.50;;;;;;;;;;5068675;28;20443;-66
2023/06/27 02:08:38;;;;;;;0.30;0.30;;;;;;;;;;5065145;28;21132;-66
2023/06/27 02:11:05;;;;;;;0.50;0.50;;;;;;;;;;5070787;28;20429;-66
2023/06/27 02:13:37;;;;;;;0.30;0.30;;;;;;;;;;5065757;28;20530;-66
2023/06/27 02:16:05;;;;;;;0.50;0.40;;;;;;;;;;5063224;28;20492;-66
2023/06/27 02:18:32;;;;;;;1.00;0.57;;;;;;;;;;5067023;28;20461;-66
2023/06/27 02:20:59;;;;;;;0.50;0.40;;;;;;;;;;5051613;28;20431;-66
2023/06/27 02:23:28;;;;;;;0.40;0.40;;;;;;;;;;5065895;28;21024;-66
2023/06/27 02:25:55;;;;;;;0.30;0.30;;;;;;;;;;5066399;28;20529;-66
2023/06/27 02:28:22;;;;;;;0.23;0.23;;;;;;;;;;5071288;28;20427;-66
2023/06/27 02:30:50;;;;;;;0.20;0.20;;;;;;;;;;5066066;28;20424;-66
2023/06/27 02:33:17;;;;;;;0.30;0.30;;;;;;;;;;5064788;28;21252;-67
2023/06/27 02:35:44;;;;;;;1.70;0.50;;;;;;;;;;5063185;28;20477;-67
2023/06/27 02:38:11;;;;;;;0.50;0.50;;;;;;;;;;5069231;28;20434;-66
2023/06/27 02:40:39;;;;;;;0.35;0.35;;;;;;;;;;5066272;28;20453;-66
2023/06/27 02:43:06;;;;;;;0.50;0.50;;;;;;;;;;5064179;28;20432;-66
2023/06/27 02:45:33;;;;;;;0.43;0.43;;;;;;;;;;5057820;28;20431;-66
2023/06/27 02:48:01;;;;;;;0.28;0.28;;;;;;;;;;5065441;28;20493;-66
2023/06/27 02:50:28;;;;;;;0.80;0.60;;;;;;;;;;5068687;28;20525;-66
2023/06/27 02:52:55;;;;;;;1.60;0.60;;;;;;;;;;5064936;28;20470;-66
2023/06/27 02:55:22;;;;;;;0.38;0.38;;;;;;;;;;5065511;28;20877;-66
2023/06/27 02:57:52;;;;;;;0.60;0.60;;;;;;;;;;5068199;28;20527;-66
2023/06/27 03:00:19;;;;;;;0.40;0.40;;;;;;;;;;5068742;28;20542;-66
2023/06/27 03:02:47;;;;;;;0.30;0.30;;;;;;;;;;5071316;28;20530;-66
2023/06/27 03:05:16;;;;;;;0.30;0.30;;;;;;;;;;5052545;28;20458;-66
2023/06/27 03:07:46;;;;;;;0.28;0.28;;;;;;;;;;5066562;28;20432;-66
2023/06/27 03:10:13;;;;;;;0.60;0.60;;;;;;;;;;5066074;28;20438;-66
2023/06/27 03:12:40;;;;;;;0.30;0.30;;;;;;;;;;5065952;28;20455;-66
2023/06/27 03:15:08;;;;;;;0.30;0.30;;;;;;;;;;5067192;28;20481;-66
2023/06/27 03:17:35;;;;;;;2.20;0.70;;;;;;;;;;5064389;28;20430;-67
2023/06/27 03:20:03;;;;;;;0.40;0.40;;;;;;;;;;5065575;28;20433;-66
2023/06/27 03:22:30;;;;;;;0.30;0.30;;;;;;;;;;5066925;28;20431;-67
2023/06/27 03:24:58;;;;;;;0.68;0.68;;;;;;;;;;5064184;28;21187;-66
2023/06/27 03:27:26;;;;;;;0.93;0.57;;;;;;;;;;5062222;28;20427;-67
2023/06/27 03:29:54;;;;;;;0.60;0.40;;;;;;;;;;5066448;28;20442;-67
2023/06/27 03:32:21;;;;;;;0.40;0.40;;;;;;;;;;5065896;28;20805;-67
2023/06/27 03:34:48;;;;;;;0.30;0.30;;;;;;;;;;5064006;28;20434;-67
2023/06/27 03:37:15;;;;;;;0.30;0.30;;;;;;;;;;5051967;28;20427;-67
2023/06/27 03:39:46;;;;;;;0.40;0.40;;;;;;;;;;5050077;28;20427;-66
2023/06/27 03:42:16;;;;;;;0.30;0.30;;;;;;;;;;5065953;28;20434;-66
2023/06/27 03:44:43;;;;;;;0.30;0.23;;;;;;;;;;5067839;28;20489;-67
2023/06/27 03:47:11;;;;;;;1.40;0.50;;;;;;;;;;5065338;28;20442;-67
2023/06/27 03:49:38;;;;;;;0.40;0.40;;;;;;;;;;5063662;28;20921;-67
2023/06/27 03:52:07;;;;;;;0.20;0.20;;;;;;;;;;5067651;28;20427;-67
2023/06/27 03:54:34;;;;;;;0.40;0.40;;;;;;;;;;5064945;28;20467;-67
2023/06/27 03:57:02;;;;;;;1.40;0.67;;;;;;;;;;5062243;28;20470;-66
2023/06/27 03:59:29;;;;;;;0.40;0.40;;;;;;;;;;5051587;28;20454;-66
2023/06/27 04:01:56;;;;;;;0.20;0.20;;;;;;;;;;5046930;28;20439;-66
2023/06/27 04:04:23;;;;;;;0.30;0.30;;;;;;;;;;5062696;28;20439;-66
2023/06/27 04:06:51;;;;;;;4.05;0.70;;;;;;;;;;5063927;28;20487;-66
2023/06/27 04:09:18;;;;;;;0.50;0.50;;;;;;;;;;5065708;28;20433;-67
2023/06/27 04:11:47;;;;;;;0.25;0.25;;;;;;;;;;5068939;28;20487;-66
2023/06/27 04:14:17;;;;;;;0.30;0.30;;;;;;;;;;5063616;28;20477;-66
2023/06/27 04:16:45;;;;;;;0.30;0.30;;;;;;;;;;5062032;28;20488;-67
2023/06/27 04:19:15;;;;;;;0.43;0.43;;;;;;;;;;5063791;28;20428;-67
2023/06/27 04:21:42;;;;;;;0.25;0.25;;;;;;;;;;5063567;28;20517;-67
2023/06/27 04:24:09;;;;;;;0.35;0.35;;;;;;;;;;5064276;28;20494;-66
2023/06/27 04:26:36;;;;;;;3.63;0.50;;;;;;;;;;5063130;28;20945;-66
2023/06/27 04:29:04;;;;;;;0.60;0.60;;;;;;;;;;5068721;28;20517;-66
2023/06/27 04:31:32;;;;;;;0.35;0.35;;;;;;;;;;5061328;28;20789;-66
2023/06/27 04:33:59;;;;;;;0.70;0.70;;;;;;;;;;5062443;28;23163;-66
2023/06/27 04:36:28;;;;;;;1.70;0.70;;;;;;;;;;5062819;28;20461;-67
2023/06/27 04:38:55;;;;;;;0.40;0.40;;;;;;;;;;5063586;28;20426;-67
2023/06/27 04:41:28;;;;;;;5.70;0.65;;;;;;;;;;5062522;28;20519;-67
2023/06/27 04:43:58;;;;;;;0.40;0.40;;;;;;;;;;5064046;28;21136;-67
2023/06/27 04:46:28;;;;;;;1.75;0.65;;;;;;;;;;5061789;28;20920;-67
2023/06/27 04:48:59;;;;;;;0.70;0.70;;;;;;;;;;5064610;28;20445;-66
2023/06/27 04:51:27;;;;;;;0.40;0.40;;;;;;;;;;5064787;28;20465;-66
2023/06/27 04:53:54;;;;;;;0.80;0.70;;;;;;;;;;5059819;28;20432;-67
2023/06/27 04:56:22;;;;;;;0.60;0.60;;;;;;;;;;5065456;28;20437;-67
2023/06/27 04:58:50;;;;;;;0.50;0.50;;;;;;;;;;5061776;28;20437;-65
2023/06/27 05:01:17;;;;;;;0.40;0.40;;;;;;;;;;5063001;28;20948;-65
2023/06/27 05:03:45;;;;;;;0.40;0.40;;;;;;;;;;5061891;28;20981;-65
2023/06/27 05:06:15;;;;;;;0.50;0.50;;;;;;;;;;5065500;28;20431;-65
2023/06/27 05:08:44;;;;;;;0.40;0.40;;;;;;;;;;5053033;28;20548;-66
2023/06/27 05:11:11;;;;;;;0.43;0.43;;;;;;;;;;5064208;28;20431;-66
2023/06/27 05:13:39;;;;;;;0.50;0.50;;;;;;;;;;5064446;28;20420;-66
2023/06/27 05:16:06;;;;;;;0.70;0.70;;;;;;;;;;5058729;28;20434;-65
2023/06/27 05:18:33;;;;;;;0.50;0.50;;;;;;;;;;5045715;28;20427;-65
2023/06/27 05:21:02;;;;;;;0.87;0.47;;;;;;;;;;5058749;28;20558;-65
2023/06/27 05:23:29;;;;;;;0.30;0.30;;;;;;;;;;5060881;28;20502;-66
2023/06/27 05:25:56;;;;;;;1.20;0.70;;;;;;;;;;5059630;28;20459;-66
2023/06/27 05:28:23;;;;;;;0.52;0.52;;;;;;;;;;5065692;28;20901;-66
2023/06/27 05:30:53;;;;;;;0.50;0.50;;;;;;;;;;5063345;28;20509;-66
2023/06/27 05:33:20;;;;;;;0.93;0.93;;;;;;;;;;5062605;28;20921;-65
2023/06/27 05:35:47;;;;;;;0.45;0.45;;;;;;;;;;5067780;28;20951;-66
2023/06/27 05:38:15;;;;;;;0.30;0.30;;;;;;;;;;5066217;28;20429;-66
2023/06/27 05:40:43;;;;;;;0.70;0.50;;;;;;;;;;5067146;28;20427;-66
2023/06/27 05:43:10;;;;;;;0.30;0.30;;;;;;;;;;5052517;28;21228;-66
2023/06/27 05:45:37;;;;;;;1.95;0.75;;;;;;;;;;5069611;28;20983;-66
2023/06/27 05:48:05;;;;;;;0.50;0.50;;;;;;;;;;5068256;28;20431;-66
2023/06/27 05:50:32;;;;;;;0.30;0.30;;;;;;;;;;5065043;28;20435;-66
2023/06/27 05:52:59;;;;;;;2.90;0.40;;;;;;;;;;5070095;28;20460;-66
2023/06/27 05:55:30;;;;;;;0.50;0.50;;;;;;;;;;5068791;28;20419;-66
2023/06/27 05:57:57;;;;;;;0.70;0.53;;;;;;;;;;5066682;28;20426;-67
2023/06/27 06:00:24;;;;;;;0.60;0.50;;;;;;;;;;5068566;28;20478;-66
2023/06/27 06:02:51;;;;;;;0.38;0.38;;;;;;;;;;5068693;28;20434;-66
2023/06/27 06:05:19;;;;;;;0.47;0.47;;;;;;;;;;5068491;28;20473;-66
2023/06/27 06:07:46;;;;;;;0.40;0.40;;;;;;;;;;5066208;28;20431;-66
2023/06/27 06:10:13;;;;;;;0.57;0.50;;;;;;;;;;5071433;28;20433;-66
2023/06/27 06:12:43;;;;;;;4.90;0.70;;;;;;;;;;5069545;28;21095;-66
2023/06/27 06:15:10;;;;;;;0.80;0.80;;;;;;;;;;5064530;28;20427;-66
2023/06/27 06:17:38;;;;;;;0.28;0.28;;;;;;;;;;5061128;28;20802;-66
2023/06/27 06:20:10;;;;;;;0.30;0.30;;;;;;;;;;5068097;28;20995;-66
2023/06/27 06:22:38;;;;;;;0.80;0.63;;;;;;;;;;5065361;28;20425;-66
2023/06/27 06:25:07;;;;;;;0.35;0.30;;;;;;;;;;5064526;28;20431;-67
2023/06/27 06:27:34;;;;;;;0.40;0.40;;;;;;;;;;5067138;28;20439;-66
2023/06/27 06:30:01;;;;;;;0.70;0.38;;;;;;;;;;5066567;28;21039;-66
2023/06/27 06:32:28;;;;;;;0.30;0.30;;;;;;;;;;5064635;28;20493;-67
2023/06/27 06:34:57;;;;;;;0.32;0.32;;;;;;;;;;5066197;28;20781;-66
2023/06/27 06:37:27;;;;;;;0.50;0.50;;;;;;;;;;5068458;28;20427;-66
2023/06/27 06:39:54;;;;;;;0.43;0.43;;;;;;;;;;5067349;28;20434;-66
2023/06/27 06:42:22;;;;;;;0.28;0.28;;;;;;;;;;5065191;28;20439;-66
2023/06/27 06:44:50;;;;;;;0.33;0.33;;;;;;;;;;5068237;28;20936;-67
2023/06/27 06:47:20;;;;;;;2.60;0.40;;;;;;;;;;5063851;28;20434;-67
2023/06/27 06:49:48;;;;;;;0.20;0.20;;;;;;;;;;5050408;28;20554;-66
2023/06/27 06:52:15;;;;;;;0.60;0.40;;;;;;;;;;5067282;28;21132;-65
2023/06/27 06:54:43;;;;;;;0.40;0.40;;;;;;;;;;5066945;28;20979;-66
2023/06/27 06:57:11;;;;;;;0.40;0.40;;;;;;;;;;5065268;28;21230;-66
2023/06/27 06:59:38;;;;;;;1.00;0.47;;;;;;;;;;5064206;28;20486;-66
2023/06/27 07:02:05;;;;;;;0.60;0.60;;;;;;;;;;5064059;28;20442;-66
2023/06/27 07:04:35;;;;;;;0.20;0.20;;;;;;;;;;5065851;28;20435;-66
2023/06/27 07:07:06;;;;;;;2.20;0.83;;;;;;;;;;5065763;28;20429;-66
2023/06/27 07:09:34;;;;;;;0.30;0.30;;;;;;;;;;5058520;28;20439;-66
2023/06/27 07:12:03;;;;;;;0.80;0.55;;;;;;;;;;5064689;28;20465;-66
2023/06/27 07:14:32;;;;;;;0.47;0.47;;;;;;;;;;5032307;28;20431;-66
2023/06/27 07:16:59;;;;;;;0.60;0.60;;;;;;;;;;5049656;28;20493;-67
2023/06/27 07:19:28;;;;;;;0.40;0.40;;;;;;;;;;5064537;28;20424;-67
2023/06/27 07:21:55;;;;;;;0.40;0.40;;;;;;;;;;5050462;28;20919;-67
2023/06/27 07:24:22;;;;;;;0.40;0.40;;;;;;;;;;5063381;28;20436;-66
2023/06/27 07:26:51;;;;;;;2.42;0.52;;;;;;;;;;5044886;28;20426;-67
2023/06/27 07:29:18;;;;;;;2.10;0.50;;;;;;;;;;5065293;28;22043;-67
2023/06/27 07:31:45;;;;;;;0.40;0.40;;;;;;;;;;5065304;28;20421;-67
2023/06/27 07:34:12;;;;;;;0.63;0.52;;;;;;;;;;5062837;28;20431;-66
2023/06/27 07:36:39;;;;;;;1.05;0.43;;;;;;;;;;5060256;28;20452;-64
2023/06/27 07:39:07;;;;;;;1.48;0.65;;;;;;;;;;5066955;28;20428;-65
2023/06/27 07:41:34;;;;;;;0.70;0.70;;;;;;;;;;5065759;28;20921;-66
2023/06/27 07:44:04;;;;;;;0.38;0.38;;;;;;;;;;5062073;28;20518;-67
2023/06/27 07:46:33;;;;;;;0.47;0.47;;;;;;;;;;5061375;28;20495;-64
2023/06/27 07:49:00;;;;;;;0.50;0.50;;;;;;;;;;5063511;28;20499;-64
2023/06/27 07:51:31;;;;;;;0.30;0.30;;;;;;;;;;5047809;28;20438;-64
2023/06/27 07:54:00;;;;;;;2.03;0.82;;;;;;;;;;5060877;28;20436;-65
2023/06/27 07:56:28;;;;;;;0.40;0.40;;;;;;;;;;5065491;28;20505;-66
2023/06/27 07:58:55;;;;;;;1.67;0.68;;;;;;;;;;5062104;28;20832;-65
2023/06/27 08:01:22;;;;;;;0.80;0.68;;;;;;;;;;5066587;28;20465;-65
2023/06/27 08:03:49;;;;;;;0.80;0.50;;;;;;;;;;5063498;28;20425;-65
2023/06/27 08:06:17;;;;;;;0.30;0.30;;;;;;;;;;5066977;28;20459;-65
2023/06/27 08:08:47;;;;;;;1.10;0.60;;;;;;;;;;5063151;28;21127;-65
2023/06/27 08:11:17;;;;;;;2.50;0.50;;;;;;;;;;5049348;28;20989;-66
2023/06/27 08:13:45;;;;;;;0.52;0.52;;;;;;;;;;5064978;28;20484;-65
2023/06/27 08:16:12;;;;;;;0.35;0.35;;;;;;;;;;5065914;28;20435;-66
2023/06/27 08:18:40;;;;;;;0.60;0.50;;;;;;;;;;5069042;28;20428;-65
2023/06/27 08:21:07;;;;;;;0.40;0.40;;;;;;;;;;5065308;28;20463;-66
2023/06/27 08:23:34;;;;;;;0.52;0.52;;;;;;;;;;5064377;28;20779;-65
2023/06/27 08:26:01;;;;;;;0.80;0.30;;;;;;;;;;5067175;28;20427;-66
2023/06/27 08:28:28;;;;;;;0.30;0.30;;;;;;;;;;5048923;28;20516;-65
2023/06/27 08:30:56;;;;;;;1.10;0.50;;;;;;;;;;5066804;28;20442;-65
2023/06/27 08:33:25;;;;;;;0.90;0.50;;;;;;;;;;5066856;28;20430;-64
2023/06/27 08:35:52;;;;;;;0.40;0.40;;;;;;;;;;5067463;28;20439;-65
2023/06/27 08:38:21;;;;;;;0.40;0.40;;;;;;;;;;5066796;28;20951;-65
2023/06/27 08:40:54;;;;;;;0.60;0.60;;;;;;;;;;5065164;28;20434;-65
2023/06/27 08:43:21;;;;;;;0.70;0.50;;;;;;;;;;5065425;28;20435;-65
2023/06/27 08:45:49;;;;;;;0.90;0.33;;;;;;;;;;5062915;28;20936;-65
2023/06/27 08:48:19;;;;;;;0.60;0.60;;;;;;;;;;5065670;28;20518;-66
2023/06/27 08:50:46;;;;;;;0.93;0.75;;;;;;;;;;5049416;28;20489;-65
2023/06/27 08:53:14;;;;;;;0.80;0.80;;;;;;;;;;5061564;28;21504;-66
2023/06/27 08:56:00;;;;;;;2.17;1.03;;;;;;;;;;5063537;28;20837;-64
2023/06/27 08:58:28;;;;;;;0.50;0.50;;;;;;;;;;5064171;28;20430;-65
2023/06/27 09:00:59;;;;;;;0.30;0.30;;;;;;;;;;5064574;28;20479;-65
2023/06/27 09:03:26;;;;;;;0.50;0.50;;;;;;;;;;5065169;28;20692;-67
2023/06/27 09:05:55;;;;;;;0.40;0.40;;;;;;;;;;5065944;28;20461;-66
2023/06/27 09:08:26;;;;;;;1.80;0.40;;;;;;;;;;5044956;28;20505;-66
2023/06/27 09:10:53;;;;;;;0.38;0.38;;;;;;;;;;5063555;28;20519;-65
2023/06/27 09:13:23;;;;;;;0.30;0.30;;;;;;;;;;5064041;28;20430;-63
2023/06/27 09:15:53;;;;;;;0.30;0.30;;;;;;;;;;5050469;28;20527;-65
2023/06/27 09:18:25;;;;;;;0.40;0.40;;;;;;;;;;5066750;28;20432;-65
2023/06/27 09:20:58;;;;;;;0.38;0.38;;;;;;;;;;5061480;28;20523;-66
2023/06/27 09:23:32;;;;;;;0.40;0.40;;;;;;;;;;5062283;28;20514;-65
2023/06/27 09:26:09;;;;;;;0.50;0.50;;;;;;;;;;5061897;28;20482;-68
2023/06/27 09:28:50;;;;;;;0.30;0.30;;;;;;;;;;5060989;28;20434;-65
2023/06/27 09:31:19;;;;;;;0.87;0.40;;;;;;;;;;5066245;28;20428;-65
2023/06/27 09:33:48;;;;;;;1.80;0.70;;;;;;;;;;5066142;28;20441;-65
2023/06/27 09:36:37;;;;;;;0.50;0.50;;;;;;;;;;5065515;28;20564;-67
2023/06/27 09:39:14;;;;;;;1.45;0.45;;;;;;;;;;5060347;28;20429;-66
2023/06/27 09:41:47;;;;;;;0.50;0.40;;;;;;;;;;5062567;28;20434;-66
2023/06/27 09:44:16;;;;;;;0.70;0.70;;;;;;;;;;5066473;28;20438;-62
2023/06/27 09:46:44;;;;;;;1.85;0.30;;;;;;;;;;5062504;28;20434;-65
2023/06/27 09:49:11;;;;;;;0.70;0.70;;;;;;;;;;5059304;28;20546;-64
2023/06/27 09:51:39;;;;;;;0.57;0.57;;;;;;;;;;5053122;28;20426;-66
2023/06/27 09:54:06;;;;;;;1.00;0.32;;;;;;;;;;5061355;28;20433;-64
2023/06/27 09:56:37;;;;;;;0.50;0.50;;;;;;;;;;5064023;28;20949;-65
2023/06/27 09:59:12;;;;;;;0.30;0.30;;;;;;;;;;5048215;28;20615;-65
2023/06/27 10:01:59;;;;;;;0.95;0.65;;;;;;;;;;5061350;28;20512;-65
2023/06/27 10:04:26;;;;;;;0.43;0.43;;;;;;;;;;5061074;28;21168;-65
2023/06/27 10:06:58;;;;;;;0.57;0.50;;;;;;;;;;5053556;28;20438;-65
2023/06/27 10:09:25;;;;;;;0.30;0.30;;;;;;;;;;5062736;28;20443;-65
2023/06/27 10:11:52;;;;;;;0.98;0.55;;;;;;;;;;5059820;28;21545;-66
2023/06/27 10:14:21;;;;;;;3.80;0.60;;;;;;;;;;5064679;28;20442;-65
2023/06/27 10:16:52;;;;;;;0.80;0.80;;;;;;;;;;5063255;28;22970;-65
2023/06/27 10:19:20;;;;;;;0.55;0.40;;;;;;;;;;5061485;28;20434;-65
2023/06/27 10:21:48;;;;;;;0.40;0.40;;;;;;;;;;5063153;28;20418;-64
2023/06/27 10:24:15;;;;;;;0.50;0.50;;;;;;;;;;5064738;28;20497;-65
2023/06/27 10:26:50;;;;;;;0.35;0.35;;;;;;;;;;5065028;28;20439;-64
2023/06/27 10:29:18;;;;;;;2.90;0.50;;;;;;;;;;5064463;28;20456;-65
2023/06/27 10:31:45;;;;;;;1.80;0.70;;;;;;;;;;5064253;28;21012;-64
2023/06/27 10:34:24;;;;;;;2.30;0.60;;;;;;;;;;5061280;28;20441;-65
2023/06/27 10:36:54;;;;;;;1.77;0.70;;;;;;;;;;5058207;28;20434;-64
2023/06/27 10:39:34;;;;;;;0.70;0.70;;;;;;;;;;5053077;28;20689;-66
2023/06/27 10:42:05;;;;;;;0.67;0.50;;;;;;;;;;5064938;28;20506;-64
2023/06/27 10:44:36;;;;;;;0.38;0.38;;;;;;;;;;5065593;28;20442;-64
2023/06/27 10:47:21;;;;;;;0.50;0.50;;;;;;;;;;5064700;28;20513;-64
2023/06/27 10:50:01;;;;;;;0.40;0.40;;;;;;;;;;5066895;28;20442;-63
2023/06/27 10:52:28;;;;;;;0.50;0.50;;;;;;;;;;5065567;28;20431;-65
2023/06/27 10:55:15;;;;;;;3.00;0.47;;;;;;;;;;5067279;28;20431;-64
2023/06/27 10:57:48;;;;;;;0.40;0.40;;;;;;;;;;5065893;28;20430;-64
2023/06/27 11:00:34;;;;;;;0.30;0.30;;;;;;;;;;5067422;28;20587;-65
2023/06/27 11:03:06;;;;;;;0.30;0.30;;;;;;;;;;5067436;28;20426;-65
2023/06/27 11:05:38;;;;;;;0.40;0.40;;;;;;;;;;5066852;28;20427;-66
2023/06/27 11:08:09;;;;;;;0.52;0.32;;;;;;;;;;5064773;28;20434;-64
2023/06/27 11:10:48;;;;;;;0.60;0.40;;;;;;;;;;5069330;28;20431;-65
2023/06/27 11:13:25;;;;;;;0.90;0.40;;;;;;;;;;5067746;28;20435;-64
2023/06/27 11:15:56;;;;;;;0.50;0.50;;;;;;;;;;5052951;28;20419;-64
2023/06/27 11:18:27;;;;;;;0.80;0.35;;;;;;;;;;5064907;28;20434;-66
2023/06/27 11:20:58;;;;;;;0.47;0.47;;;;;;;;;;5066351;28;20431;-64
2023/06/27 11:23:26;;;;;;;0.47;0.47;;;;;;;;;;5065913;28;20435;-64
2023/06/27 11:25:54;;;;;;;0.43;0.43;;;;;;;;;;5068524;28;20504;-65
2023/06/27 11:28:22;;;;;;;0.52;0.30;;;;;;;;;;5047338;28;20469;-64
2023/06/27 11:31:00;;;;;;;0.30;0.30;;;;;;;;;;5068804;28;20443;-64
2023/06/27 11:33:29;;;;;;;0.40;0.40;;;;;;;;;;5065967;28;20518;-64
2023/06/27 11:35:58;;;;;;;0.30;0.30;;;;;;;;;;5062351;28;21124;-64
2023/06/27 11:38:28;;;;;;;0.90;0.40;;;;;;;;;;5054841;28;20431;-63
2023/06/27 11:40:55;;;;;;;0.30;0.30;;;;;;;;;;5063091;28;20431;-65
2023/06/27 11:43:23;;;;;;;0.30;0.30;;;;;;;;;;5066074;28;20516;-64
2023/06/27 11:45:51;;;;;;;0.40;0.40;;;;;;;;;;5063963;28;20955;-64
2023/06/27 11:48:20;;;;;;;0.30;0.30;;;;;;;;;;5066306;28;20431;-63
2023/06/27 11:51:07;;;;;;;0.60;0.45;;;;;;;;;;5061851;28;20621;-63
2023/06/27 11:53:38;;;;;;;0.30;0.30;;;;;;;;;;5063009;28;20436;-64
2023/06/27 11:56:08;;;;;;;0.30;0.30;;;;;;;;;;5064132;28;20936;-64
2023/06/27 11:58:48;;;;;;;1.00;0.40;;;;;;;;;;5068974;28;20435;-64
2023/06/27 12:01:16;;;;;;;0.80;0.60;;;;;;;;;;5061188;28;20518;-64
2023/06/27 12:03:47;;;;;;;0.30;0.30;;;;;;;;;;5066973;28;20432;-64
2023/06/27 12:06:28;;;;;;;0.50;0.50;;;;;;;;;;5064978;28;20437;-65
2023/06/27 12:08:55;;;;;;;1.50;0.52;;;;;;;;;;5065243;28;20429;-64
2023/06/27 12:11:27;;;;;;;0.82;0.40;;;;;;;;;;5049167;28;20441;-65
2023/06/27 12:13:55;;;;;;;0.32;0.32;;;;;;;;;;5065046;28;20426;-64
2023/06/27 12:16:27;;;;;;;0.43;0.43;;;;;;;;;;5051914;28;20446;-63
2023/06/27 12:19:05;;;;;;;0.50;0.50;;;;;;;;;;5070625;28;20420;-63
2023/06/27 12:21:35;;;;;;;0.80;0.60;;;;;;;;;;5064645;28;20578;-65
2023/06/27 12:24:03;;;;;;;1.50;0.60;;;;;;;;;;5064221;28;20443;-64
2023/06/27 12:26:33;;;;;;;0.40;0.40;;;;;;;;;;5070300;28;20928;-65
2023/06/27 12:29:05;;;;;;;0.33;0.33;;;;;;;;;;5062108;28;20443;-64
2023/06/27 12:31:32;;;;;;;0.20;0.20;;;;;;;;;;5065248;28;20443;-65
2023/06/27 12:34:10;;;;;;;0.40;0.40;;;;;;;;;;5067716;28;20839;-65
2023/06/27 12:36:38;;;;;;;0.60;0.40;;;;;;;;;;5065614;28;20438;-64
2023/06/27 12:39:08;;;;;;;0.60;0.60;;;;;;;;;;5067232;28;20430;-64
2023/06/27 12:41:36;;;;;;;0.40;0.40;;;;;;;;;;5053567;28;20431;-65
2023/06/27 12:44:03;;;;;;;0.40;0.40;;;;;;;;;;5064406;28;20433;-64
2023/06/27 12:46:31;;;;;;;0.30;0.30;;;;;;;;;;5068537;28;20429;-65
2023/06/27 12:49:01;;;;;;;0.38;0.38;;;;;;;;;;5062102;28;20439;-65
2023/06/27 12:51:31;;;;;;;0.40;0.40;;;;;;;;;;5064728;28;20442;-65
2023/06/27 12:54:03;;;;;;;0.50;0.40;;;;;;;;;;5063573;28;20535;-67
2023/06/27 12:56:34;;;;;;;0.90;0.40;;;;;;;;;;5064530;28;20554;-67
2023/06/27 12:59:04;;;;;;;0.52;0.52;;;;;;;;;;5066419;28;20432;-63
2023/06/27 13:01:44;;;;;;;0.22;0.22;;;;;;;;;;5064559;28;20510;-63
2023/06/27 13:04:11;;;;;;;0.50;0.50;;;;;;;;;;5062049;28;20437;-63
2023/06/27 13:06:41;;;;;;;0.50;0.50;;;;;;;;;;5064539;28;20439;-63
2023/06/27 13:09:08;;;;;;;0.47;0.47;;;;;;;;;;5060749;28;20434;-63
2023/06/27 13:11:36;;;;;;;0.32;0.32;;;;;;;;;;5065653;28;21104;-64
2023/06/27 13:14:08;;;;;;;0.40;0.40;;;;;;;;;;5069173;28;21396;-65
2023/06/27 13:16:35;;;;;;;0.23;0.23;;;;;;;;;;5065798;28;21162;-65
2023/06/27 13:19:07;;;;;;;0.40;0.40;;;;;;;;;;5067765;28;20427;-64
2023/06/27 13:21:34;;;;;;;0.37;0.27;;;;;;;;;;5064134;28;20432;-65
2023/06/27 13:24:02;;;;;;;0.50;0.50;;;;;;;;;;5065599;28;21040;-64
2023/06/27 13:26:29;;;;;;;1.50;0.40;;;;;;;;;;5069659;28;20433;-63
2023/06/27 13:29:08;;;;;;;0.30;0.30;;;;;;;;;;5062917;28;20427;-63
2023/06/27 13:31:41;;;;;;;0.75;0.57;;;;;;;;;;5061800;28;20435;-64
2023/06/27 13:34:10;;;;;;;0.50;0.50;;;;;;;;;;5060962;28;20423;-64
2023/06/27 13:36:38;;;;;;;0.40;0.40;;;;;;;;;;5053690;28;20430;-64
2023/06/27 13:39:09;;;;;;;0.85;0.30;;;;;;;;;;5063808;28;20435;-65
2023/06/27 13:41:36;;;;;;;1.27;0.47;;;;;;;;;;5066564;28;20425;-65
2023/06/27 13:44:03;;;;;;;0.40;0.40;;;;;;;;;;5064627;28;20457;-64
2023/06/27 13:46:30;;;;;;;1.27;0.70;;;;;;;;;;5063468;28;20433;-63
2023/06/27 13:48:58;;;;;;;1.00;0.45;;;;;;;;;;5067115;28;20475;-63
2023/06/27 13:51:27;;;;;;;0.28;0.28;;;;;;;;;;5068876;28;20527;-65
2023/06/27 13:53:54;;;;;;;0.60;0.60;;;;;;;;;;5067710;28;20607;-64
2023/06/27 13:56:25;;;;;;;0.60;0.60;;;;;;;;;;5069907;28;20438;-64
2023/06/27 13:58:52;;;;;;;0.50;0.50;;;;;;;;;;5071453;28;20431;-65
2023/06/27 14:01:19;;;;;;;0.55;0.55;;;;;;;;;;5066247;28;20585;-65
2023/06/27 14:04:11;;;;;;;0.38;0.38;;;;;;;;;;5067836;28;20418;-64
2023/06/27 14:06:44;;;;;;;0.93;0.63;;;;;;;;;;5069166;28;20446;-64
2023/06/27 14:09:14;;;;;;;0.40;0.40;;;;;;;;;;5068934;28;20490;-64
2023/06/27 14:11:43;;;;;;;0.60;0.30;;;;;;;;;;5069717;28;20620;-65
2023/06/27 14:14:11;;;;;;;2.80;0.70;;;;;;;;;;5066707;28;20427;-64
2023/06/27 14:16:39;;;;;;;0.40;0.40;;;;;;;;;;5064057;28;20434;-64
2023/06/27 14:19:08;;;;;;;0.40;0.40;;;;;;;;;;5070529;28;20427;-63
2023/06/27 14:21:38;;;;;;;0.50;0.50;;;;;;;;;;5067164;28;20426;-65
2023/06/27 14:24:11;;;;;;;1.08;0.50;;;;;;;;;;5073303;28;20418;-64
2023/06/27 14:26:43;;;;;;;2.50;0.70;;;;;;;;;;5071259;28;20971;-64
2023/06/27 14:29:11;;;;;;;0.50;0.50;;;;;;;;;;5066593;28;20683;-64
2023/06/27 14:31:42;;;;;;;0.30;0.30;;;;;;;;;;5063069;28;20772;-65
2023/06/27 14:34:09;;;;;;;0.70;0.70;;;;;;;;;;5058460;28;20483;-65
2023/06/27 14:36:37;;;;;;;0.70;0.60;;;;;;;;;;5069500;28;20432;-65
2023/06/27 14:39:08;;;;;;;0.40;0.40;;;;;;;;;;5070645;28;20516;-64
2023/06/27 14:41:37;;;;;;;0.40;0.40;;;;;;;;;;5068001;28;20438;-65
2023/06/27 14:44:05;;;;;;;0.40;0.40;;;;;;;;;;5067740;28;20423;-64
2023/06/27 14:46:32;;;;;;;1.85;0.73;;;;;;;;;;5070787;28;20428;-65
2023/06/27 14:49:00;;;;;;;0.30;0.30;;;;;;;;;;5066761;28;20425;-65
2023/06/27 14:51:30;;;;;;;1.00;0.57;;;;;;;;;;5066710;28;20418;-66
2023/06/27 14:53:57;;;;;;;0.40;0.40;;;;;;;;;;5067011;28;20483;-66
2023/06/27 14:56:26;;;;;;;0.60;0.45;;;;;;;;;;5052767;28;20435;-67
2023/06/27 14:58:53;;;;;;;0.98;0.70;;;;;;;;;;5068747;28;20443;-66
2023/06/27 15:01:24;;;;;;;0.50;0.50;;;;;;;;;;5065423;28;20540;-66